createdAt,value
2023-09-10T00:00:51.676Z,18.81
2023-09-10T00:01:55.047Z,18.77
2023-09-10T00:02:57.886Z,18.76
2023-09-10T00:04:00.718Z,18.44
2023-09-10T00:05:03.971Z,18.63
2023-09-10T00:06:07.384Z,18.64
2023-09-10T00:07:10.636Z,18.56
2023-09-10T00:08:13.603Z,18.51
2023-09-10T00:09:16.451Z,18.40
2023-09-10T00:10:19.630Z,18.43
2023-09-10T00:11:22.538Z,18.42
2023-09-10T00:12:25.768Z,18.40
2023-09-10T00:13:29.015Z,18.42
2023-09-10T00:14:31.879Z,18.32
2023-09-10T00:15:34.757Z,18.37
2023-09-10T00:16:37.711Z,18.36
2023-09-10T00:17:41.034Z,18.44
2023-09-10T00:18:43.941Z,18.15
2023-09-10T00:19:46.969Z,18.37
2023-09-10T00:20:52.405Z,18.37
2023-09-10T00:21:55.316Z,18.36
2023-09-10T00:22:58.644Z,18.38
2023-09-10T00:24:01.607Z,18.36
2023-09-10T00:25:05.647Z,18.25
2023-09-10T00:26:10.266Z,18.24
2023-09-10T00:27:16.811Z,17.48
2023-09-10T00:28:19.956Z,18.27
2023-09-10T00:29:22.817Z,18.31
2023-09-10T00:30:27.557Z,18.28
2023-09-10T00:31:30.456Z,18.24
2023-09-10T00:32:33.372Z,18.25
2023-09-10T00:33:36.782Z,18.15
2023-09-10T00:34:41.565Z,18.30
2023-09-10T00:35:44.817Z,18.27
2023-09-10T00:36:47.707Z,18.30
2023-09-10T00:37:50.615Z,18.33
2023-09-10T00:38:53.542Z,18.28
2023-09-10T00:39:56.148Z,18.34
2023-09-10T00:40:58.901Z,18.36
2023-09-10T00:42:01.526Z,18.18
2023-09-10T00:43:04.616Z,18.33
2023-09-10T00:44:07.555Z,18.17
2023-09-10T00:45:13.449Z,17.88
2023-09-10T00:46:16.971Z,18.15
2023-09-10T00:47:20.014Z,18.10
2023-09-10T00:48:23.435Z,18.07
2023-09-10T00:49:26.772Z,17.98
2023-09-10T00:50:30.054Z,17.86
2023-09-10T00:51:33.253Z,17.89
2023-09-10T00:52:37.523Z,17.77
2023-09-10T00:53:41.255Z,17.83
2023-09-10T00:54:44.943Z,17.77
2023-09-10T00:55:49.190Z,17.74
2023-09-10T00:56:53.562Z,17.73
2023-09-10T00:57:56.976Z,17.40
2023-09-10T00:59:00.430Z,17.49
2023-09-10T01:00:12.058Z,17.68
2023-09-10T01:01:16.482Z,17.66
2023-09-10T01:02:21.454Z,17.61
2023-09-10T01:03:26.015Z,17.58
2023-09-10T01:04:29.626Z,17.26
2023-09-10T01:05:33.829Z,17.62
2023-09-10T01:06:38.233Z,17.63
2023-09-10T01:07:42.416Z,17.30
2023-09-10T01:08:45.529Z,17.44
2023-09-10T01:09:48.648Z,17.75
2023-09-10T01:11:07.617Z,17.80
2023-09-10T01:12:10.251Z,17.74
2023-09-10T01:13:35.265Z,17.84
2023-09-10T01:14:47.764Z,17.78
2023-09-10T01:15:57.651Z,17.68
2023-09-10T01:17:40.062Z,17.77
2023-09-10T01:18:56.587Z,17.76
2023-09-10T01:20:11.957Z,17.76
2023-09-10T01:21:38.013Z,17.74
2023-09-10T01:23:16.334Z,17.76
2023-09-10T01:24:19.749Z,17.76
2023-09-10T01:25:23.557Z,17.78
2023-09-10T01:26:26.383Z,17.79
2023-09-10T01:27:29.070Z,17.73
2023-09-10T01:28:32.342Z,17.71
2023-09-10T01:29:35.148Z,17.62
2023-09-10T01:30:38.970Z,17.66
2023-09-10T01:31:45.951Z,17.64
2023-09-10T01:32:52.552Z,17.63
2023-09-10T01:33:59.943Z,17.65
2023-09-10T01:41:16.316Z,17.48
2023-09-10T01:42:20.309Z,17.39
2023-09-10T01:43:23.196Z,17.40
2023-09-10T01:44:27.958Z,17.38
2023-09-10T01:45:32.331Z,17.42
2023-09-10T01:46:36.799Z,17.39
2023-09-10T01:47:40.467Z,17.11
2023-09-10T01:48:43.925Z,17.36
2023-09-10T01:49:47.054Z,17.28
2023-09-10T01:50:50.053Z,17.35
2023-09-10T01:51:53.026Z,17.36
2023-09-10T01:52:58.653Z,17.24
2023-09-10T01:54:01.355Z,17.32
2023-09-10T01:55:04.624Z,17.32
2023-09-10T01:56:07.508Z,17.31
2023-09-10T01:57:11.146Z,17.27
2023-09-10T01:58:14.464Z,17.22
2023-09-10T01:59:17.512Z,17.19
2023-09-10T02:00:20.557Z,17.16
2023-09-10T02:01:23.933Z,17.12
2023-09-10T02:02:27.192Z,17.12
2023-09-10T02:03:30.189Z,16.86
2023-09-10T02:04:33.219Z,17.05
2023-09-10T02:05:36.224Z,17.04
2023-09-10T02:06:39.447Z,17.04
2023-09-10T02:07:42.412Z,17.06
2023-09-10T02:08:45.292Z,16.82
2023-09-10T02:09:48.200Z,17.08
2023-09-10T02:10:51.501Z,17.12
2023-09-10T02:11:54.477Z,17.21
2023-09-10T02:12:57.253Z,16.94
2023-09-10T02:14:00.219Z,16.95
2023-09-10T02:15:04.913Z,17.18
2023-09-10T02:16:08.542Z,17.22
2023-09-10T02:17:11.902Z,17.29
2023-09-10T02:18:14.919Z,17.23
2023-09-10T02:19:17.553Z,17.27
2023-09-10T02:20:20.667Z,17.24
2023-09-10T02:21:23.674Z,17.17
2023-09-10T02:22:26.729Z,17.13
2023-09-10T02:23:30.194Z,16.94
2023-09-10T02:24:33.143Z,17.03
2023-09-10T02:25:38.281Z,16.84
2023-09-10T02:26:42.679Z,17.07
2023-09-10T02:27:45.620Z,16.98
2023-09-10T02:28:48.547Z,17.04
2023-09-10T02:29:51.496Z,17.04
2023-09-10T02:30:54.444Z,17.02
2023-09-10T02:31:57.254Z,16.78
2023-09-10T02:33:00.531Z,17.01
2023-09-10T02:34:03.623Z,17.06
2023-09-10T02:35:06.809Z,17.09
2023-09-10T02:36:09.516Z,17.10
2023-09-10T02:37:14.050Z,17.15
2023-09-10T02:38:17.055Z,17.19
2023-09-10T02:39:20.065Z,17.17
2023-09-10T02:40:22.735Z,17.04
2023-09-10T02:41:25.342Z,17.24
2023-09-10T02:42:28.407Z,17.22
2023-09-10T02:43:31.672Z,17.22
2023-09-10T02:44:34.606Z,17.23
2023-09-10T02:45:39.442Z,17.09
2023-09-10T02:46:42.322Z,17.23
2023-09-10T02:47:45.189Z,17.28
2023-09-10T02:48:48.485Z,17.27
2023-09-10T02:49:51.593Z,17.31
2023-09-10T02:50:55.314Z,17.33
2023-09-10T02:51:58.230Z,17.33
2023-09-10T02:53:01.524Z,17.26
2023-09-10T02:54:04.581Z,17.36
2023-09-10T02:55:07.792Z,17.39
2023-09-10T02:56:10.793Z,17.10
2023-09-10T02:57:13.588Z,17.36
2023-09-10T02:58:16.249Z,17.08
2023-09-10T02:59:23.698Z,17.20
2023-09-10T03:00:29.436Z,17.12
2023-09-10T03:01:32.398Z,17.05
2023-09-10T03:02:35.465Z,17.02
2023-09-10T03:03:38.428Z,16.62
2023-09-10T03:04:41.690Z,16.92
2023-09-10T03:05:48.157Z,16.80
2023-09-10T03:06:51.833Z,16.80
2023-09-10T03:07:56.364Z,16.66
2023-09-10T03:08:59.409Z,16.70
2023-09-10T03:10:02.647Z,16.64
2023-09-10T03:11:06.050Z,16.54
2023-09-10T03:12:26.671Z,16.52
2023-09-10T03:13:29.751Z,16.51
2023-09-10T03:14:32.617Z,16.51
2023-09-10T03:15:35.842Z,16.50
2023-09-10T03:16:43.776Z,16.49
2023-09-10T03:17:47.334Z,16.45
2023-09-10T03:18:50.246Z,16.43
2023-09-10T03:19:53.256Z,16.43
2023-09-10T03:20:56.526Z,16.40
2023-09-10T03:21:59.906Z,16.35
2023-09-10T03:23:03.606Z,16.29
2023-09-10T03:24:06.804Z,16.27
2023-09-10T03:25:09.996Z,16.24
2023-09-10T03:26:13.549Z,16.10
2023-09-10T03:27:16.257Z,16.07
2023-09-10T03:28:19.253Z,16.13
2023-09-10T03:29:22.261Z,16.13
2023-09-10T03:30:24.890Z,16.13
2023-09-10T03:31:29.860Z,16.09
2023-09-10T03:32:32.931Z,16.02
2023-09-10T03:33:36.242Z,16.11
2023-09-10T03:34:39.727Z,16.10
2023-09-10T03:35:43.047Z,16.13
2023-09-10T03:36:46.078Z,16.10
2023-09-10T03:37:49.290Z,15.97
2023-09-10T03:38:53.283Z,16.13
2023-09-10T03:39:56.117Z,16.07
2023-09-10T03:40:59.014Z,16.10
2023-09-10T03:42:02.435Z,16.11
2023-09-10T03:43:05.085Z,16.12
2023-09-10T03:44:07.995Z,16.12
2023-09-10T03:45:11.079Z,16.11
2023-09-10T03:46:14.160Z,16.09
2023-09-10T03:47:17.688Z,16.06
2023-09-10T03:48:20.903Z,16.03
2023-09-10T03:49:23.844Z,16.03
2023-09-10T03:50:26.686Z,16.03
2023-09-10T03:51:29.471Z,16.05
2023-09-10T03:52:32.468Z,16.03
2023-09-10T03:53:35.445Z,16.05
2023-09-10T03:54:38.296Z,16.01
2023-09-10T03:55:41.985Z,16.11
2023-09-10T03:56:45.023Z,16.11
2023-09-10T03:57:48.263Z,15.74
2023-09-10T03:58:51.431Z,15.86
2023-09-10T03:59:54.744Z,16.20
2023-09-10T04:00:57.541Z,16.21
2023-09-10T04:02:00.894Z,16.23
2023-09-10T04:03:06.068Z,16.24
2023-09-10T04:04:09.116Z,16.21
2023-09-10T04:05:13.105Z,16.20
2023-09-10T04:06:16.057Z,16.17
2023-09-10T04:07:19.204Z,16.18
2023-09-10T04:08:22.148Z,16.14
2023-09-10T04:09:25.724Z,16.14
2023-09-10T04:10:28.904Z,16.17
2023-09-10T04:11:31.775Z,16.20
2023-09-10T04:12:35.571Z,16.22
2023-09-10T04:13:38.972Z,16.22
2023-09-10T04:14:41.615Z,16.25
2023-09-10T04:15:44.307Z,16.26
2023-09-10T04:16:47.520Z,16.28
2023-09-10T04:17:50.668Z,16.27
2023-09-10T04:18:53.647Z,16.30
2023-09-10T04:19:57.081Z,16.32
2023-09-10T04:20:59.941Z,16.30
2023-09-10T04:22:03.980Z,16.36
2023-09-10T04:23:07.222Z,16.37
2023-09-10T04:24:10.285Z,16.42
2023-09-10T04:25:13.173Z,16.42
2023-09-10T04:26:17.347Z,16.44
2023-09-10T04:27:20.257Z,16.51
2023-09-10T04:28:23.622Z,16.51
2023-09-10T04:29:26.629Z,16.52
2023-09-10T04:30:32.028Z,16.52
2023-09-10T04:31:40.612Z,16.56
2023-09-10T04:32:43.262Z,16.52
2023-09-10T04:33:46.435Z,16.59
2023-09-10T04:34:49.405Z,16.56
2023-09-10T04:35:58.563Z,16.55
2023-09-10T04:37:04.376Z,16.56
2023-09-10T04:38:07.245Z,16.64
2023-09-10T04:39:10.429Z,16.71
2023-09-10T04:40:13.756Z,16.78
2023-09-10T04:41:16.870Z,16.81
2023-09-10T04:42:20.177Z,16.80
2023-09-10T04:43:23.490Z,16.83
2023-09-10T04:44:26.651Z,16.88
2023-09-10T04:45:29.484Z,16.95
2023-09-10T04:46:32.312Z,16.99
2023-09-10T04:47:35.095Z,17.03
2023-09-10T04:48:38.115Z,17.05
2023-09-10T04:49:41.723Z,17.07
2023-09-10T04:50:45.845Z,17.01
2023-09-10T04:51:48.538Z,16.76
2023-09-10T04:52:53.474Z,17.13
2023-09-10T04:53:56.653Z,17.18
2023-09-10T04:54:59.671Z,17.18
2023-09-10T04:56:02.506Z,17.31
2023-09-10T04:57:05.838Z,17.39
2023-09-10T04:58:08.808Z,17.45
2023-09-10T04:59:11.772Z,17.50
2023-09-10T05:00:15.505Z,17.55
2023-09-10T05:01:18.830Z,17.57
2023-09-10T05:02:21.756Z,17.60
2023-09-10T05:03:24.695Z,17.60
2023-09-10T05:04:28.565Z,17.75
2023-09-10T05:05:32.221Z,17.77
2023-09-10T05:06:36.295Z,17.84
2023-09-10T05:07:39.264Z,17.79
2023-09-10T05:08:42.220Z,17.90
2023-09-10T05:09:44.808Z,17.97
2023-09-10T05:10:49.867Z,18.07
2023-09-10T05:11:57.807Z,18.14
2023-09-10T05:13:00.616Z,18.19
2023-09-10T05:14:03.668Z,18.16
2023-09-10T05:15:07.727Z,18.38
2023-09-10T05:16:11.166Z,18.45
2023-09-10T05:17:13.973Z,18.53
2023-09-10T05:18:17.028Z,18.64
2023-09-10T05:19:27.058Z,18.72
2023-09-10T05:20:31.575Z,18.74
2023-09-10T05:21:34.559Z,18.78
2023-09-10T05:22:37.417Z,18.82
2023-09-10T05:23:40.124Z,18.86
2023-09-10T05:24:43.076Z,18.95
2023-09-10T05:25:45.916Z,19.06
2023-09-10T05:26:48.981Z,19.11
2023-09-10T05:27:52.245Z,19.19
2023-09-10T05:28:55.249Z,19.29
2023-09-10T05:29:58.430Z,19.33
2023-09-10T05:31:05.806Z,19.38
2023-09-10T05:32:09.169Z,19.39
2023-09-10T05:33:12.028Z,19.47
2023-09-10T05:34:14.850Z,19.49
2023-09-10T05:35:17.710Z,19.61
2023-09-10T05:36:22.676Z,19.70
2023-09-10T05:37:27.248Z,19.83
2023-09-10T05:38:29.871Z,19.91
2023-09-10T05:39:32.812Z,19.95
2023-09-10T05:40:38.455Z,20.04
2023-09-10T05:41:41.501Z,19.77
2023-09-10T05:42:46.336Z,20.15
2023-09-10T05:43:49.362Z,20.27
2023-09-10T05:44:53.585Z,20.03
2023-09-10T05:45:56.759Z,20.37
2023-09-10T05:46:59.877Z,20.38
2023-09-10T05:48:02.949Z,20.44
2023-09-10T05:49:05.922Z,20.50
2023-09-10T05:50:09.088Z,20.54
2023-09-10T05:51:11.759Z,20.59
2023-09-10T05:52:14.719Z,20.56
2023-09-10T05:53:17.787Z,20.71
2023-09-10T05:54:20.758Z,20.74
2023-09-10T05:55:25.448Z,20.69
2023-09-10T05:56:30.005Z,20.89
2023-09-10T05:57:32.941Z,20.93
2023-09-10T05:58:36.118Z,21.08
2023-09-10T05:59:39.137Z,21.03
2023-09-10T06:00:41.890Z,21.17
2023-09-10T06:01:44.853Z,21.02
2023-09-10T06:02:49.755Z,21.36
2023-09-10T06:03:53.045Z,21.39
2023-09-10T06:04:56.192Z,21.47
2023-09-10T06:06:02.099Z,21.68
2023-09-10T06:07:05.610Z,21.71
2023-09-10T06:08:09.148Z,21.65
2023-09-10T06:09:12.050Z,21.76
2023-09-10T06:10:15.056Z,21.81
2023-09-10T06:11:17.792Z,21.82
2023-09-10T06:12:20.986Z,21.91
2023-09-10T06:13:24.104Z,22.05
2023-09-10T06:14:27.345Z,22.01
2023-09-10T06:15:30.124Z,22.16
2023-09-10T06:16:33.217Z,21.99
2023-09-10T06:17:37.003Z,22.13
2023-09-10T06:18:40.215Z,22.17
2023-09-10T06:19:43.411Z,22.28
2023-09-10T06:20:46.365Z,22.32
2023-09-10T06:21:49.488Z,22.41
2023-09-10T06:22:54.279Z,22.33
2023-09-10T06:23:56.960Z,22.32
2023-09-10T06:24:59.904Z,22.33
2023-09-10T06:26:02.855Z,22.48
2023-09-10T06:27:05.800Z,22.47
2023-09-10T06:28:09.435Z,22.58
2023-09-10T06:29:13.033Z,22.57
2023-09-10T06:30:16.710Z,22.61
2023-09-10T06:31:19.338Z,22.61
2023-09-10T06:32:22.130Z,22.56
2023-09-10T06:33:25.246Z,22.78
2023-09-10T06:34:28.015Z,22.85
2023-09-10T06:35:31.675Z,22.62
2023-09-10T06:36:34.815Z,22.70
2023-09-10T06:37:41.109Z,22.89
2023-09-10T06:38:51.599Z,22.74
2023-09-10T06:39:54.627Z,22.74
2023-09-10T06:40:57.571Z,23.12
2023-09-10T06:42:01.064Z,23.09
2023-09-10T06:43:09.936Z,23.13
2023-09-10T06:44:13.490Z,23.19
2023-09-10T06:45:16.531Z,23.21
2023-09-10T06:46:19.466Z,23.33
2023-09-10T06:47:22.443Z,23.32
2023-09-10T06:48:25.490Z,23.08
2023-09-10T06:49:28.578Z,23.21
2023-09-10T06:51:35.341Z,23.05
2023-09-10T06:52:38.011Z,23.17
2023-09-10T06:53:40.886Z,23.31
2023-09-10T06:54:45.030Z,23.40
2023-09-10T06:55:47.876Z,23.54
2023-09-10T06:56:50.909Z,23.72
2023-09-10T06:57:53.947Z,23.75
2023-09-10T06:58:56.988Z,23.78
2023-09-10T07:00:00.214Z,24.01
2023-09-10T07:01:07.468Z,24.13
2023-09-10T07:02:10.187Z,24.21
2023-09-10T07:03:14.538Z,24.38
2023-09-10T07:04:20.306Z,24.11
2023-09-10T07:05:23.445Z,23.90
2023-09-10T07:06:26.525Z,24.02
2023-09-10T07:07:29.735Z,24.04
2023-09-10T07:08:35.741Z,23.96
2023-09-10T07:09:38.345Z,24.19
2023-09-10T07:10:41.655Z,24.37
2023-09-10T07:11:47.310Z,24.13
2023-09-10T07:12:52.694Z,24.19
2023-09-10T07:13:55.556Z,24.33
2023-09-10T07:14:58.579Z,24.44
2023-09-10T07:16:02.063Z,24.46
2023-09-10T07:17:06.948Z,24.54
2023-09-10T07:18:09.985Z,24.66
2023-09-10T07:19:15.700Z,24.54
2023-09-10T07:20:19.962Z,24.42
2023-09-10T07:21:23.210Z,24.54
2023-09-10T07:22:26.136Z,24.69
2023-09-10T07:23:29.440Z,24.71
2023-09-10T07:24:32.350Z,24.60
2023-09-10T07:25:35.249Z,24.50
2023-09-10T07:26:38.744Z,24.73
2023-09-10T07:27:41.639Z,24.79
2023-09-10T07:28:44.480Z,24.89
2023-09-10T07:29:47.425Z,24.94
2023-09-10T07:30:50.143Z,25.08
2023-09-10T07:31:53.221Z,25.17
2023-09-10T07:32:56.221Z,25.30
2023-09-10T07:33:59.145Z,25.49
2023-09-10T07:35:02.180Z,25.12
2023-09-10T07:36:05.462Z,25.20
2023-09-10T07:37:10.008Z,25.32
2023-09-10T07:38:14.613Z,25.38
2023-09-10T07:39:19.973Z,25.59
2023-09-10T07:40:22.938Z,25.63
2023-09-10T07:41:25.991Z,25.81
2023-09-10T07:42:29.121Z,25.76
2023-09-10T07:43:31.921Z,25.32
2023-09-10T07:44:34.603Z,25.32
2023-09-10T07:45:37.559Z,25.20
2023-09-10T07:46:40.618Z,25.54
2023-09-10T07:47:43.926Z,25.68
2023-09-10T07:48:46.738Z,25.94
2023-09-10T07:49:52.809Z,25.96
2023-09-10T07:50:59.440Z,25.93
2023-09-10T07:52:04.670Z,25.86
2023-09-10T07:53:08.106Z,25.97
2023-09-10T07:54:11.089Z,25.79
2023-09-10T07:55:14.033Z,25.79
2023-09-10T07:56:17.106Z,25.68
2023-09-10T07:57:20.123Z,25.72
2023-09-10T07:58:23.346Z,25.71
2023-09-10T07:59:26.021Z,25.78
2023-09-10T08:00:28.680Z,25.97
2023-09-10T08:01:31.888Z,26.00
2023-09-10T08:02:36.298Z,26.23
2023-09-10T08:03:40.238Z,26.03
2023-09-10T08:04:44.239Z,26.04
2023-09-10T08:05:47.116Z,26.21
2023-09-10T08:06:50.399Z,26.38
2023-09-10T08:07:54.916Z,26.37
2023-09-10T08:08:57.887Z,26.24
2023-09-10T08:10:00.871Z,26.39
2023-09-10T08:11:03.805Z,26.40
2023-09-10T08:12:07.369Z,26.33
2023-09-10T08:13:10.212Z,26.44
2023-09-10T08:14:13.439Z,26.53
2023-09-10T08:15:16.326Z,26.62
2023-09-10T08:16:21.885Z,26.93
2023-09-10T08:17:25.145Z,27.13
2023-09-10T08:18:28.194Z,26.98
2023-09-10T08:19:31.119Z,27.05
2023-09-10T08:20:33.688Z,27.00
2023-09-10T08:21:36.642Z,27.29
2023-09-10T08:22:39.891Z,27.13
2023-09-10T08:23:43.985Z,27.51
2023-09-10T08:24:50.380Z,27.60
2023-09-10T08:25:53.771Z,27.86
2023-09-10T08:27:02.985Z,27.83
2023-09-10T08:28:06.461Z,28.12
2023-09-10T08:29:09.136Z,27.93
2023-09-10T08:30:13.461Z,27.80
2023-09-10T08:31:16.455Z,27.64
2023-09-10T08:32:19.613Z,27.98
2023-09-10T08:33:24.969Z,27.84
2023-09-10T08:34:27.817Z,27.59
2023-09-10T08:35:45.324Z,27.59
2023-09-10T08:36:49.860Z,27.84
2023-09-10T08:37:52.888Z,28.03
2023-09-10T08:38:56.254Z,27.85
2023-09-10T08:39:59.414Z,27.95
2023-09-10T08:41:13.878Z,27.97
2023-09-10T08:43:03.039Z,28.25
2023-09-10T08:44:10.429Z,28.18
2023-09-10T08:45:17.133Z,27.83
2023-09-10T08:46:23.565Z,27.87
2023-09-10T08:47:27.169Z,27.84
2023-09-10T08:48:33.622Z,28.12
2023-09-10T08:49:44.116Z,28.18
2023-09-10T08:50:47.891Z,28.52
2023-09-10T08:51:50.722Z,28.59
2023-09-10T08:52:54.679Z,28.35
2023-09-10T08:53:59.185Z,28.55
2023-09-10T08:55:02.720Z,28.65
2023-09-10T08:56:05.887Z,28.67
2023-09-10T08:57:08.829Z,28.75
2023-09-10T08:58:13.938Z,28.87
2023-09-10T08:59:17.604Z,28.63
2023-09-10T09:00:23.533Z,28.50
2023-09-10T09:01:28.336Z,28.82
2023-09-10T09:02:31.249Z,28.94
2023-09-10T09:03:34.771Z,29.19
2023-09-10T09:04:37.521Z,29.38
2023-09-10T09:05:41.748Z,29.58
2023-09-10T09:06:47.827Z,29.15
2023-09-10T09:07:57.149Z,29.11
2023-09-10T09:09:06.939Z,29.09
2023-09-10T09:10:13.866Z,29.31
2023-09-10T09:11:17.470Z,29.50
2023-09-10T09:12:22.502Z,29.56
2023-09-10T09:13:27.161Z,29.65
2023-09-10T09:14:31.588Z,29.49
2023-09-10T09:15:35.708Z,29.83
2023-09-10T09:16:41.926Z,29.79
2023-09-10T09:17:45.736Z,29.91
2023-09-10T09:18:49.622Z,29.85
2023-09-10T09:19:53.264Z,29.43
2023-09-10T09:20:59.003Z,29.82
2023-09-10T09:22:07.049Z,29.54
2023-09-10T09:23:29.336Z,29.74
2023-09-10T09:24:32.623Z,29.76
2023-09-10T09:25:37.513Z,29.90
2023-09-10T09:26:42.817Z,29.65
2023-09-10T09:27:46.190Z,30.13
2023-09-10T09:28:49.070Z,30.15
2023-09-10T09:29:53.037Z,30.11
2023-09-10T09:30:56.262Z,29.92
2023-09-10T09:31:59.357Z,30.23
2023-09-10T09:33:06.403Z,30.34
2023-09-10T09:34:09.874Z,30.48
2023-09-10T09:35:12.965Z,30.19
2023-09-10T09:36:15.958Z,30.30
2023-09-10T09:37:22.382Z,30.10
2023-09-10T09:38:27.750Z,29.93
2023-09-10T09:39:34.196Z,29.63
2023-09-10T09:40:37.728Z,29.50
2023-09-10T09:41:42.559Z,29.94
2023-09-10T09:42:46.322Z,30.12
2023-09-10T09:43:49.826Z,30.23
2023-09-10T09:44:52.945Z,30.01
2023-09-10T09:45:55.746Z,30.32
2023-09-10T09:46:58.868Z,30.62
2023-09-10T09:48:02.516Z,30.71
2023-09-10T09:49:06.852Z,30.76
2023-09-10T09:50:14.906Z,30.54
2023-09-10T09:51:19.743Z,30.95
2023-09-10T09:52:22.710Z,30.88
2023-09-10T09:53:33.413Z,31.05
2023-09-10T09:54:36.642Z,30.97
2023-09-10T09:55:39.645Z,30.74
2023-09-10T09:56:44.720Z,31.05
2023-09-10T09:57:48.515Z,31.34
2023-09-10T09:58:51.265Z,30.95
2023-09-10T09:59:54.495Z,31.32
2023-09-10T10:01:00.686Z,31.52
2023-09-10T10:02:04.836Z,30.99
2023-09-10T10:03:07.900Z,30.94
2023-09-10T10:04:10.968Z,31.27
2023-09-10T10:05:14.674Z,31.18
2023-09-10T10:06:19.153Z,31.15
2023-09-10T10:07:35.310Z,31.16
2023-09-10T10:08:52.465Z,31.06
2023-09-10T10:09:55.509Z,30.51
2023-09-10T10:10:58.888Z,29.92
2023-09-10T10:12:04.202Z,30.49
2023-09-10T10:13:07.270Z,30.74
2023-09-10T10:14:11.092Z,30.85
2023-09-10T10:15:15.386Z,30.97
2023-09-10T10:16:18.161Z,31.10
2023-09-10T10:17:22.152Z,31.15
2023-09-10T10:18:30.899Z,31.33
2023-09-10T10:19:35.439Z,31.32
2023-09-10T10:20:39.533Z,31.14
2023-09-10T10:21:42.801Z,30.98
2023-09-10T10:22:46.660Z,31.11
2023-09-10T10:23:50.107Z,31.50
2023-09-10T10:24:53.286Z,31.44
2023-09-10T10:26:03.286Z,31.49
2023-09-10T10:27:07.635Z,31.37
2023-09-10T10:28:12.510Z,31.22
2023-09-10T10:29:16.522Z,31.33
2023-09-10T10:30:19.666Z,31.19
2023-09-10T10:31:30.866Z,31.43
2023-09-10T10:32:42.776Z,31.44
2023-09-10T10:34:17.901Z,31.43
2023-09-10T10:35:21.394Z,31.68
2023-09-10T10:36:40.710Z,31.48
2023-09-10T10:38:12.308Z,30.99
2023-09-10T10:39:17.569Z,31.30
2023-09-10T10:40:26.823Z,31.63
2023-09-10T10:41:33.234Z,31.56
2023-09-10T10:43:13.820Z,31.31
2023-09-10T10:44:23.166Z,31.19
2023-09-10T10:45:26.548Z,31.55
2023-09-10T10:46:31.410Z,31.77
2023-09-10T10:47:41.719Z,31.93
2023-09-10T10:48:45.311Z,32.20
2023-09-10T10:49:58.158Z,31.84
2023-09-10T10:51:03.965Z,32.00
2023-09-10T10:52:10.314Z,32.09
2023-09-10T10:53:24.414Z,31.96
2023-09-10T10:54:29.560Z,31.99
2023-09-10T10:55:34.672Z,31.90
2023-09-10T10:56:37.935Z,32.09
2023-09-10T10:57:41.656Z,32.19
2023-09-10T10:58:45.319Z,32.26
2023-09-10T10:59:49.250Z,32.49
2023-09-10T11:00:53.570Z,32.28
2023-09-10T11:02:16.154Z,32.20
2023-09-10T11:03:21.088Z,32.24
2023-09-10T11:04:26.745Z,32.46
2023-09-10T11:05:55.641Z,32.44
2023-09-10T11:07:18.945Z,32.00
2023-09-10T11:08:30.530Z,31.99
2023-09-10T11:09:37.188Z,31.92
2023-09-10T11:10:42.229Z,32.00
2023-09-10T11:11:45.029Z,31.98
2023-09-10T11:13:07.033Z,31.75
2023-09-10T11:14:11.931Z,31.76
2023-09-10T11:15:14.768Z,31.74
2023-09-10T11:16:18.391Z,31.97
2023-09-10T11:17:26.665Z,31.95
2023-09-10T11:18:49.900Z,31.98
2023-09-10T11:19:52.907Z,32.23
2023-09-10T11:20:55.582Z,32.03
2023-09-10T11:21:58.425Z,31.91
2023-09-10T11:23:06.893Z,32.00
2023-09-10T11:24:09.642Z,31.85
2023-09-10T11:25:13.018Z,31.80
2023-09-10T11:26:16.230Z,31.83
2023-09-10T11:27:24.102Z,31.94
2023-09-10T11:28:47.268Z,31.92
2023-09-10T11:30:10.147Z,32.20
2023-09-10T11:31:35.198Z,32.31
2023-09-10T11:32:38.845Z,32.44
2023-09-10T11:33:42.149Z,32.26
2023-09-10T11:34:45.415Z,32.42
2023-09-10T11:35:54.596Z,32.25
2023-09-10T11:37:03.946Z,32.43
2023-09-10T11:38:08.042Z,32.40
2023-09-10T11:39:11.073Z,32.27
2023-09-10T11:40:14.672Z,32.49
2023-09-10T11:41:17.711Z,32.31
2023-09-10T11:42:20.668Z,32.15
2023-09-10T11:43:24.203Z,32.36
2023-09-10T11:44:27.292Z,32.66
2023-09-10T11:45:32.569Z,32.60
2023-09-10T11:46:35.334Z,32.51
2023-09-10T11:47:46.965Z,32.53
2023-09-10T11:48:49.908Z,32.24
2023-09-10T11:50:01.175Z,32.44
2023-09-10T11:51:04.561Z,32.31
2023-09-10T11:52:08.922Z,32.25
2023-09-10T11:53:13.517Z,32.23
2023-09-10T11:54:19.224Z,32.40
2023-09-10T11:55:22.566Z,32.39
2023-09-10T11:56:26.211Z,32.41
2023-09-10T11:57:29.611Z,32.46
2023-09-10T11:58:32.935Z,32.69
2023-09-10T11:59:36.112Z,32.33
2023-09-10T12:00:43.156Z,32.23
2023-09-10T12:01:46.634Z,32.38
2023-09-10T12:02:49.657Z,32.47
2023-09-10T12:03:52.741Z,32.43
2023-09-10T12:04:55.566Z,32.39
2023-09-10T12:06:01.556Z,32.33
2023-09-10T12:07:04.988Z,32.25
2023-09-10T12:08:08.069Z,32.34
2023-09-10T12:09:10.635Z,32.36
2023-09-10T12:10:16.633Z,32.12
2023-09-10T12:11:20.844Z,31.91
2023-09-10T12:12:30.225Z,31.98
2023-09-10T12:13:34.966Z,31.92
2023-09-10T12:14:38.438Z,31.73
2023-09-10T12:15:41.740Z,32.08
2023-09-10T12:16:44.627Z,32.23
2023-09-10T12:17:48.082Z,32.22
2023-09-10T12:18:52.231Z,32.11
2023-09-10T12:19:55.811Z,31.54
2023-09-10T12:21:00.164Z,31.79
2023-09-10T12:22:05.860Z,31.91
2023-09-10T12:23:09.238Z,31.89
2023-09-10T12:24:13.281Z,31.82
2023-09-10T12:25:16.334Z,31.93
2023-09-10T12:26:20.811Z,31.93
2023-09-10T12:27:23.619Z,31.99
2023-09-10T12:28:28.400Z,32.04
2023-09-10T12:29:32.103Z,32.13
2023-09-10T12:30:36.862Z,32.30
2023-09-10T12:31:39.970Z,32.21
2023-09-10T12:32:43.084Z,32.17
2023-09-10T12:33:46.745Z,32.13
2023-09-10T12:34:50.784Z,31.65
2023-09-10T12:35:53.391Z,32.09
2023-09-10T12:36:57.594Z,32.01
2023-09-10T12:38:01.803Z,32.11
2023-09-10T12:39:24.644Z,32.16
2023-09-10T12:40:27.372Z,32.07
2023-09-10T12:41:30.136Z,32.15
2023-09-10T12:42:32.927Z,31.96
2023-09-10T12:43:36.422Z,31.84
2023-09-10T12:44:41.842Z,31.77
2023-09-10T12:45:44.905Z,31.67
2023-09-10T12:46:49.815Z,31.43
2023-09-10T12:47:53.841Z,31.75
2023-09-10T12:48:57.062Z,31.49
2023-09-10T12:50:00.499Z,31.51
2023-09-10T12:51:03.861Z,31.48
2023-09-10T12:52:07.064Z,31.41
2023-09-10T12:53:10.120Z,31.38
2023-09-10T12:54:15.162Z,31.40
2023-09-10T12:55:18.615Z,31.20
2023-09-10T12:56:22.289Z,31.20
2023-09-10T12:57:26.395Z,31.40
2023-09-10T12:58:30.032Z,31.23
2023-09-10T12:59:33.109Z,31.12
2023-09-10T13:00:36.648Z,31.16
2023-09-10T13:01:40.878Z,31.18
2023-09-10T13:02:47.723Z,31.20
2023-09-10T13:03:51.205Z,31.29
2023-09-10T13:04:55.645Z,31.26
2023-09-10T13:06:00.062Z,31.28
2023-09-10T13:07:03.330Z,31.37
2023-09-10T13:08:07.351Z,31.40
2023-09-10T13:09:10.163Z,31.34
2023-09-10T13:10:14.216Z,31.50
2023-09-10T13:11:17.979Z,31.23
2023-09-10T13:12:22.845Z,31.25
2023-09-10T13:13:26.458Z,31.21
2023-09-10T13:14:30.151Z,30.81
2023-09-10T13:15:33.379Z,30.75
2023-09-10T13:16:37.235Z,30.70
2023-09-10T13:17:40.949Z,30.74
2023-09-10T13:18:44.993Z,30.67
2023-09-10T13:19:48.478Z,30.63
2023-09-10T13:20:53.184Z,30.59
2023-09-10T13:21:56.448Z,30.61
2023-09-10T13:23:00.457Z,30.66
2023-09-10T13:24:04.440Z,30.53
2023-09-10T13:25:09.229Z,30.42
2023-09-10T13:26:12.443Z,30.42
2023-09-10T13:27:16.195Z,30.55
2023-09-10T13:28:19.359Z,30.62
2023-09-10T13:29:22.876Z,30.45
2023-09-10T13:30:28.985Z,30.21
2023-09-10T13:31:32.629Z,30.03
2023-09-10T13:32:38.101Z,30.20
2023-09-10T13:33:41.908Z,30.19
2023-09-10T13:34:45.402Z,30.14
2023-09-10T13:35:48.953Z,30.24
2023-09-10T13:36:53.058Z,30.23
2023-09-10T13:37:56.869Z,30.27
2023-09-10T13:39:00.205Z,30.24
2023-09-10T13:40:04.833Z,30.25
2023-09-10T13:41:08.240Z,30.20
2023-09-10T13:42:11.166Z,30.20
2023-09-10T13:43:18.826Z,30.18
2023-09-10T13:44:22.946Z,30.11
2023-09-10T13:45:26.139Z,30.11
2023-09-10T13:46:30.416Z,30.10
2023-09-10T13:47:33.936Z,29.96
2023-09-10T13:48:37.456Z,30.03
2023-09-10T13:49:41.132Z,30.07
2023-09-10T13:50:45.137Z,30.06
2023-09-10T13:51:48.920Z,29.89
2023-09-10T13:52:51.622Z,29.88
2023-09-10T13:53:55.821Z,29.74
2023-09-10T13:54:58.846Z,29.72
2023-09-10T13:56:02.092Z,29.63
2023-09-10T13:57:05.663Z,29.66
2023-09-10T13:58:09.043Z,29.53
2023-09-10T13:59:13.056Z,29.55
2023-09-10T14:00:16.545Z,29.73